sensor_id;sensor_type;location;lat;lon;timestamp;P1;durP1;ratioP1;P2;durP2;ratioP2
10872;SDS011;34586;53.616;10.032;2023-06-24T00:01:35;12.40;;;10.60;;
10872;SDS011;34586;53.616;10.032;2023-06-24T00:04:01;13.77;;;10.90;;
10872;SDS011;34586;53.616;10.032;2023-06-24T00:06:27;13.17;;;10.90;;
10872;SDS011;34586;53.616;10.032;2023-06-24T00:08:53;12.30;;;10.30;;
10872;SDS011;34586;53.616;10.032;2023-06-24T00:11:26;13.17;;;10.40;;
10872;SDS011;34586;53.616;10.032;2023-06-24T00:13:55;12.67;;;10.30;;
10872;SDS011;34586;53.616;10.032;2023-06-24T00:16:20;13.83;;;11.07;;
10872;SDS011;34586;53.616;10.032;2023-06-24T00:18:52;11.00;;;9.93;;
10872;SDS011;34586;53.616;10.032;2023-06-24T00:21:23;13.13;;;11.30;;
10872;SDS011;34586;53.616;10.032;2023-06-24T00:23:54;12.00;;;10.80;;
10872;SDS011;34586;53.616;10.032;2023-06-24T00:26:21;13.23;;;11.80;;
10872;SDS011;34586;53.616;10.032;2023-06-24T00:28:46;12.07;;;10.33;;
10872;SDS011;34586;53.616;10.032;2023-06-24T00:31:12;12.47;;;10.93;;
10872;SDS011;34586;53.616;10.032;2023-06-24T00:33:37;13.17;;;11.60;;
10872;SDS011;34586;53.616;10.032;2023-06-24T00:36:03;15.50;;;12.43;;
10872;SDS011;34586;53.616;10.032;2023-06-24T00:38:29;12.97;;;11.67;;
10872;SDS011;34586;53.616;10.032;2023-06-24T00:40:57;14.40;;;11.97;;
10872;SDS011;34586;53.616;10.032;2023-06-24T00:43:23;13.23;;;11.83;;
10872;SDS011;34586;53.616;10.032;2023-06-24T00:45:50;14.87;;;12.80;;
10872;SDS011;34586;53.616;10.032;2023-06-24T00:48:15;12.63;;;11.43;;
10872;SDS011;34586;53.616;10.032;2023-06-24T00:50:41;13.33;;;11.93;;
10872;SDS011;34586;53.616;10.032;2023-06-24T00:53:10;15.60;;;12.30;;
10872;SDS011;34586;53.616;10.032;2023-06-24T00:55:37;14.27;;;12.43;;
10872;SDS011;34586;53.616;10.032;2023-06-24T00:58:03;15.83;;;12.67;;
10872;SDS011;34586;53.616;10.032;2023-06-24T01:00:29;13.40;;;12.10;;
10872;SDS011;34586;53.616;10.032;2023-06-24T01:02:57;12.97;;;11.60;;
10872;SDS011;34586;53.616;10.032;2023-06-24T01:05:24;12.83;;;11.63;;
10872;SDS011;34586;53.616;10.032;2023-06-24T01:07:51;13.23;;;11.93;;
10872;SDS011;34586;53.616;10.032;2023-06-24T01:10:20;13.13;;;11.67;;
10872;SDS011;34586;53.616;10.032;2023-06-24T01:12:47;14.97;;;13.30;;
10872;SDS011;34586;53.616;10.032;2023-06-24T01:15:13;15.97;;;12.77;;
10872;SDS011;34586;53.616;10.032;2023-06-24T01:20:23;16.57;;;13.33;;
10872;SDS011;34586;53.616;10.032;2023-06-24T01:33:55;13.83;;;12.27;;
10872;SDS011;34586;53.616;10.032;2023-06-24T01:36:26;15.23;;;12.47;;
10872;SDS011;34586;53.616;10.032;2023-06-24T01:38:56;14.40;;;12.97;;
10872;SDS011;34586;53.616;10.032;2023-06-24T01:41:26;13.57;;;12.07;;
10872;SDS011;34586;53.616;10.032;2023-06-24T01:44:00;13.30;;;11.90;;
10872;SDS011;34586;53.616;10.032;2023-06-24T01:46:27;12.97;;;11.77;;
10872;SDS011;34586;53.616;10.032;2023-06-24T01:48:55;15.10;;;12.30;;
10872;SDS011;34586;53.616;10.032;2023-06-24T01:51:24;13.07;;;11.63;;
10872;SDS011;34586;53.616;10.032;2023-06-24T01:53:52;18.63;;;12.60;;
10872;SDS011;34586;53.616;10.032;2023-06-24T01:56:23;13.90;;;12.30;;
10872;SDS011;34586;53.616;10.032;2023-06-24T01:58:52;15.50;;;12.53;;
10872;SDS011;34586;53.616;10.032;2023-06-24T02:01:20;13.53;;;11.97;;
10872;SDS011;34586;53.616;10.032;2023-06-24T02:03:48;13.50;;;11.47;;
10872;SDS011;34586;53.616;10.032;2023-06-24T02:06:14;12.13;;;10.87;;
10872;SDS011;34586;53.616;10.032;2023-06-24T02:08:42;13.43;;;11.43;;
10872;SDS011;34586;53.616;10.032;2023-06-24T02:11:08;13.97;;;11.63;;
10872;SDS011;34586;53.616;10.032;2023-06-24T02:13:35;13.57;;;11.90;;
10872;SDS011;34586;53.616;10.032;2023-06-24T02:16:03;12.50;;;11.27;;
10872;SDS011;34586;53.616;10.032;2023-06-24T02:18:32;12.97;;;11.47;;
10872;SDS011;34586;53.616;10.032;2023-06-24T02:21:00;14.53;;;11.63;;
10872;SDS011;34586;53.616;10.032;2023-06-24T02:23:28;12.47;;;11.20;;
10872;SDS011;34586;53.616;10.032;2023-06-24T02:25:54;13.87;;;10.80;;
10872;SDS011;34586;53.616;10.032;2023-06-24T02:28:21;13.13;;;11.20;;
10872;SDS011;34586;53.616;10.032;2023-06-24T02:30:48;15.03;;;12.57;;
10872;SDS011;34586;53.616;10.032;2023-06-24T02:33:15;12.07;;;10.80;;
10872;SDS011;34586;53.616;10.032;2023-06-24T02:35:40;14.07;;;10.47;;
10872;SDS011;34586;53.616;10.032;2023-06-24T02:38:07;11.83;;;10.60;;
10872;SDS011;34586;53.616;10.032;2023-06-24T02:40:33;11.63;;;10.53;;
10872;SDS011;34586;53.616;10.032;2023-06-24T02:42:59;14.67;;;11.27;;
10872;SDS011;34586;53.616;10.032;2023-06-24T02:45:25;13.87;;;11.13;;
10872;SDS011;34586;53.616;10.032;2023-06-24T02:47:51;12.93;;;11.30;;
10872;SDS011;34586;53.616;10.032;2023-06-24T02:50:18;12.70;;;10.30;;
10872;SDS011;34586;53.616;10.032;2023-06-24T02:52:44;12.10;;;10.90;;
10872;SDS011;34586;53.616;10.032;2023-06-24T02:55:10;12.03;;;10.73;;
10872;SDS011;34586;53.616;10.032;2023-06-24T02:57:37;11.53;;;10.40;;
10872;SDS011;34586;53.616;10.032;2023-06-24T03:00:04;12.37;;;11.17;;
10872;SDS011;34586;53.616;10.032;2023-06-24T03:02:31;11.97;;;10.83;;
10872;SDS011;34586;53.616;10.032;2023-06-24T03:04:57;12.23;;;11.03;;
10872;SDS011;34586;53.616;10.032;2023-06-24T03:07:26;12.33;;;11.03;;
10872;SDS011;34586;53.616;10.032;2023-06-24T03:09:52;14.23;;;11.63;;
10872;SDS011;34586;53.616;10.032;2023-06-24T03:12:18;13.07;;;11.13;;
10872;SDS011;34586;53.616;10.032;2023-06-24T03:14:44;14.27;;;11.10;;
10872;SDS011;34586;53.616;10.032;2023-06-24T03:17:09;12.20;;;11.00;;
10872;SDS011;34586;53.616;10.032;2023-06-24T03:19:36;15.70;;;11.20;;
10872;SDS011;34586;53.616;10.032;2023-06-24T03:22:02;12.87;;;11.63;;
10872;SDS011;34586;53.616;10.032;2023-06-24T03:24:28;12.87;;;10.97;;
10872;SDS011;34586;53.616;10.032;2023-06-24T03:26:55;12.33;;;11.03;;
10872;SDS011;34586;53.616;10.032;2023-06-24T03:29:24;14.33;;;11.80;;
10872;SDS011;34586;53.616;10.032;2023-06-24T03:31:50;12.40;;;10.80;;
10872;SDS011;34586;53.616;10.032;2023-06-24T03:34:16;14.10;;;11.83;;
10872;SDS011;34586;53.616;10.032;2023-06-24T03:36:42;13.33;;;11.67;;
10872;SDS011;34586;53.616;10.032;2023-06-24T03:39:08;13.23;;;11.60;;
10872;SDS011;34586;53.616;10.032;2023-06-24T03:41:34;12.07;;;10.87;;
10872;SDS011;34586;53.616;10.032;2023-06-24T03:44:00;13.90;;;11.50;;
10872;SDS011;34586;53.616;10.032;2023-06-24T03:46:26;12.90;;;11.70;;
10872;SDS011;34586;53.616;10.032;2023-06-24T03:48:51;13.67;;;12.20;;
10872;SDS011;34586;53.616;10.032;2023-06-24T03:51:17;14.27;;;11.87;;
10872;SDS011;34586;53.616;10.032;2023-06-24T03:53:43;13.93;;;12.03;;
10872;SDS011;34586;53.616;10.032;2023-06-24T03:56:08;13.40;;;11.70;;
10872;SDS011;34586;53.616;10.032;2023-06-24T03:58:34;13.70;;;11.90;;
10872;SDS011;34586;53.616;10.032;2023-06-24T04:01:00;14.70;;;13.17;;
10872;SDS011;34586;53.616;10.032;2023-06-24T04:03:27;16.97;;;13.20;;
10872;SDS011;34586;53.616;10.032;2023-06-24T04:05:54;18.63;;;12.43;;
10872;SDS011;34586;53.616;10.032;2023-06-24T04:08:20;17.53;;;13.67;;
10872;SDS011;34586;53.616;10.032;2023-06-24T04:10:46;16.47;;;13.23;;
10872;SDS011;34586;53.616;10.032;2023-06-24T04:13:12;15.90;;;12.77;;
10872;SDS011;34586;53.616;10.032;2023-06-24T04:15:37;14.83;;;13.10;;
10872;SDS011;34586;53.616;10.032;2023-06-24T04:18:03;14.20;;;12.80;;
10872;SDS011;34586;53.616;10.032;2023-06-24T04:20:29;14.20;;;12.70;;
10872;SDS011;34586;53.616;10.032;2023-06-24T04:22:54;14.13;;;12.53;;
10872;SDS011;34586;53.616;10.032;2023-06-24T04:25:20;14.67;;;13.17;;
10872;SDS011;34586;53.616;10.032;2023-06-24T04:27:45;15.07;;;13.47;;
10872;SDS011;34586;53.616;10.032;2023-06-24T04:30:11;14.60;;;12.10;;
10872;SDS011;34586;53.616;10.032;2023-06-24T04:32:37;12.70;;;11.37;;
10872;SDS011;34586;53.616;10.032;2023-06-24T04:35:03;17.83;;;12.40;;
10872;SDS011;34586;53.616;10.032;2023-06-24T04:37:29;14.53;;;11.57;;
10872;SDS011;34586;53.616;10.032;2023-06-24T04:39:55;11.73;;;10.07;;
10872;SDS011;34586;53.616;10.032;2023-06-24T04:42:21;16.80;;;10.33;;
10872;SDS011;34586;53.616;10.032;2023-06-24T04:44:47;12.80;;;9.73;;
10872;SDS011;34586;53.616;10.032;2023-06-24T04:47:16;10.47;;;9.33;;
10872;SDS011;34586;53.616;10.032;2023-06-24T04:49:42;11.20;;;8.50;;
10872;SDS011;34586;53.616;10.032;2023-06-24T04:52:08;12.53;;;9.23;;
10872;SDS011;34586;53.616;10.032;2023-06-24T04:54:34;9.80;;;8.80;;
10872;SDS011;34586;53.616;10.032;2023-06-24T04:56:59;11.57;;;8.10;;
10872;SDS011;34586;53.616;10.032;2023-06-24T04:59:25;10.00;;;8.33;;
10872;SDS011;34586;53.616;10.032;2023-06-24T05:01:50;10.50;;;8.57;;
10872;SDS011;34586;53.616;10.032;2023-06-24T05:04:16;11.27;;;8.03;;
10872;SDS011;34586;53.616;10.032;2023-06-24T05:06:41;12.03;;;7.67;;
10872;SDS011;34586;53.616;10.032;2023-06-24T05:09:07;10.00;;;7.87;;
10872;SDS011;34586;53.616;10.032;2023-06-24T05:11:33;10.43;;;7.90;;
10872;SDS011;34586;53.616;10.032;2023-06-24T05:13:59;8.30;;;7.40;;
10872;SDS011;34586;53.616;10.032;2023-06-24T05:16:25;8.00;;;7.23;;
10872;SDS011;34586;53.616;10.032;2023-06-24T05:18:51;8.37;;;6.47;;
10872;SDS011;34586;53.616;10.032;2023-06-24T05:21:16;8.90;;;7.27;;
10872;SDS011;34586;53.616;10.032;2023-06-24T05:23:42;7.37;;;6.30;;
10872;SDS011;34586;53.616;10.032;2023-06-24T05:26:08;6.13;;;5.20;;
10872;SDS011;34586;53.616;10.032;2023-06-24T05:28:33;7.77;;;5.30;;
10872;SDS011;34586;53.616;10.032;2023-06-24T05:30:59;5.77;;;4.97;;
10872;SDS011;34586;53.616;10.032;2023-06-24T05:33:24;7.20;;;5.47;;
10872;SDS011;34586;53.616;10.032;2023-06-24T05:35:50;6.63;;;5.50;;
10872;SDS011;34586;53.616;10.032;2023-06-24T05:38:16;5.80;;;4.70;;
10872;SDS011;34586;53.616;10.032;2023-06-24T05:40:41;5.63;;;4.70;;
10872;SDS011;34586;53.616;10.032;2023-06-24T05:43:07;6.00;;;4.57;;
10872;SDS011;34586;53.616;10.032;2023-06-24T05:45:32;5.13;;;4.60;;
10872;SDS011;34586;53.616;10.032;2023-06-24T05:47:58;4.87;;;3.80;;
10872;SDS011;34586;53.616;10.032;2023-06-24T05:50:24;5.73;;;4.30;;
10872;SDS011;34586;53.616;10.032;2023-06-24T05:52:49;5.23;;;4.43;;
10872;SDS011;34586;53.616;10.032;2023-06-24T05:55:15;5.87;;;4.20;;
10872;SDS011;34586;53.616;10.032;2023-06-24T05:57:40;6.93;;;4.50;;
10872;SDS011;34586;53.616;10.032;2023-06-24T06:00:06;4.13;;;3.67;;
10872;SDS011;34586;53.616;10.032;2023-06-24T06:02:32;8.20;;;4.27;;
10872;SDS011;34586;53.616;10.032;2023-06-24T06:04:58;5.90;;;3.60;;
10872;SDS011;34586;53.616;10.032;2023-06-24T06:07:23;5.43;;;3.77;;
10872;SDS011;34586;53.616;10.032;2023-06-24T06:09:49;7.07;;;4.17;;
10872;SDS011;34586;53.616;10.032;2023-06-24T06:12:14;6.30;;;4.63;;
10872;SDS011;34586;53.616;10.032;2023-06-24T06:14:40;9.00;;;5.97;;
10872;SDS011;34586;53.616;10.032;2023-06-24T06:17:06;6.83;;;4.53;;
10872;SDS011;34586;53.616;10.032;2023-06-24T06:19:31;6.87;;;4.90;;
10872;SDS011;34586;53.616;10.032;2023-06-24T06:21:57;6.23;;;4.57;;
10872;SDS011;34586;53.616;10.032;2023-06-24T06:24:22;5.43;;;3.90;;
10872;SDS011;34586;53.616;10.032;2023-06-24T06:26:48;7.77;;;4.47;;
10872;SDS011;34586;53.616;10.032;2023-06-24T06:29:13;5.90;;;4.07;;
10872;SDS011;34586;53.616;10.032;2023-06-24T06:31:39;4.40;;;3.67;;
10872;SDS011;34586;53.616;10.032;2023-06-24T06:34:04;4.13;;;3.57;;
10872;SDS011;34586;53.616;10.032;2023-06-24T06:36:30;4.30;;;3.50;;
10872;SDS011;34586;53.616;10.032;2023-06-24T06:38:56;5.30;;;3.43;;
10872;SDS011;34586;53.616;10.032;2023-06-24T06:41:21;7.43;;;3.57;;
10872;SDS011;34586;53.616;10.032;2023-06-24T06:43:51;6.63;;;3.23;;
10872;SDS011;34586;53.616;10.032;2023-06-24T06:46:17;4.33;;;3.03;;
10872;SDS011;34586;53.616;10.032;2023-06-24T06:48:43;6.97;;;3.37;;
10872;SDS011;34586;53.616;10.032;2023-06-24T06:51:08;3.80;;;2.80;;
10872;SDS011;34586;53.616;10.032;2023-06-24T06:53:34;2.97;;;2.77;;
10872;SDS011;34586;53.616;10.032;2023-06-24T06:56:00;3.60;;;3.13;;
10872;SDS011;34586;53.616;10.032;2023-06-24T06:58:25;4.97;;;2.90;;
10872;SDS011;34586;53.616;10.032;2023-06-24T07:00:51;4.67;;;2.60;;
10872;SDS011;34586;53.616;10.032;2023-06-24T07:03:17;3.27;;;2.90;;
10872;SDS011;34586;53.616;10.032;2023-06-24T07:05:42;4.93;;;2.97;;
10872;SDS011;34586;53.616;10.032;2023-06-24T07:08:08;3.67;;;3.00;;
10872;SDS011;34586;53.616;10.032;2023-06-24T07:10:33;3.57;;;2.60;;
10872;SDS011;34586;53.616;10.032;2023-06-24T07:13:00;4.40;;;2.87;;
10872;SDS011;34586;53.616;10.032;2023-06-24T07:15:25;4.27;;;2.67;;
10872;SDS011;34586;53.616;10.032;2023-06-24T07:17:51;3.90;;;2.43;;
10872;SDS011;34586;53.616;10.032;2023-06-24T07:20:18;3.10;;;2.30;;
10872;SDS011;34586;53.616;10.032;2023-06-24T07:22:44;3.20;;;2.43;;
10872;SDS011;34586;53.616;10.032;2023-06-24T07:25:09;3.37;;;2.50;;
10872;SDS011;34586;53.616;10.032;2023-06-24T07:27:36;3.20;;;2.70;;
10872;SDS011;34586;53.616;10.032;2023-06-24T07:30:03;3.80;;;2.80;;
10872;SDS011;34586;53.616;10.032;2023-06-24T07:32:29;6.60;;;2.90;;
10872;SDS011;34586;53.616;10.032;2023-06-24T07:34:55;3.93;;;2.60;;
10872;SDS011;34586;53.616;10.032;2023-06-24T07:37:21;5.20;;;2.50;;
10872;SDS011;34586;53.616;10.032;2023-06-24T07:39:47;3.90;;;2.70;;
10872;SDS011;34586;53.616;10.032;2023-06-24T07:42:13;3.73;;;2.90;;
10872;SDS011;34586;53.616;10.032;2023-06-24T07:44:43;2.73;;;2.53;;
10872;SDS011;34586;53.616;10.032;2023-06-24T07:47:10;5.17;;;2.50;;
10872;SDS011;34586;53.616;10.032;2023-06-24T07:49:35;3.53;;;2.67;;
10872;SDS011;34586;53.616;10.032;2023-06-24T07:52:01;4.63;;;3.30;;
10872;SDS011;34586;53.616;10.032;2023-06-24T07:54:27;4.17;;;2.90;;
10872;SDS011;34586;53.616;10.032;2023-06-24T07:56:52;2.83;;;2.37;;
10872;SDS011;34586;53.616;10.032;2023-06-24T07:59:18;3.10;;;2.80;;
10872;SDS011;34586;53.616;10.032;2023-06-24T08:01:44;3.63;;;2.40;;
10872;SDS011;34586;53.616;10.032;2023-06-24T08:04:09;3.83;;;2.90;;
10872;SDS011;34586;53.616;10.032;2023-06-24T08:06:35;4.43;;;2.80;;
10872;SDS011;34586;53.616;10.032;2023-06-24T08:09:00;3.77;;;2.20;;
10872;SDS011;34586;53.616;10.032;2023-06-24T08:11:26;3.83;;;2.47;;
10872;SDS011;34586;53.616;10.032;2023-06-24T08:13:51;2.30;;;2.10;;
10872;SDS011;34586;53.616;10.032;2023-06-24T08:16:17;2.90;;;2.20;;
10872;SDS011;34586;53.616;10.032;2023-06-24T08:18:45;2.33;;;2.13;;
10872;SDS011;34586;53.616;10.032;2023-06-24T08:21:11;2.70;;;2.50;;
10872;SDS011;34586;53.616;10.032;2023-06-24T08:23:36;4.60;;;2.43;;
10872;SDS011;34586;53.616;10.032;2023-06-24T08:31:56;2.83;;;2.27;;
10872;SDS011;34586;53.616;10.032;2023-06-24T08:34:21;3.97;;;2.47;;
10872;SDS011;34586;53.616;10.032;2023-06-24T08:36:47;4.40;;;1.80;;
10872;SDS011;34586;53.616;10.032;2023-06-24T08:39:13;2.83;;;2.30;;
10872;SDS011;34586;53.616;10.032;2023-06-24T08:41:38;3.57;;;2.63;;
10872;SDS011;34586;53.616;10.032;2023-06-24T08:44:04;2.73;;;2.00;;
10872;SDS011;34586;53.616;10.032;2023-06-24T08:46:29;3.77;;;2.40;;
10872;SDS011;34586;53.616;10.032;2023-06-24T08:49:43;2.93;;;2.50;;
10872;SDS011;34586;53.616;10.032;2023-06-24T08:51:47;3.63;;;2.40;;
10872;SDS011;34586;53.616;10.032;2023-06-24T08:54:22;2.60;;;2.40;;
10872;SDS011;34586;53.616;10.032;2023-06-24T08:56:49;3.90;;;2.40;;
10872;SDS011;34586;53.616;10.032;2023-06-24T09:01:42;3.97;;;2.30;;
10872;SDS011;34586;53.616;10.032;2023-06-24T09:04:08;2.97;;;2.37;;
10872;SDS011;34586;53.616;10.032;2023-06-24T09:06:34;2.70;;;2.50;;
10872;SDS011;34586;53.616;10.032;2023-06-24T09:08:59;3.77;;;3.00;;
10872;SDS011;34586;53.616;10.032;2023-06-24T09:11:25;3.23;;;2.70;;
10872;SDS011;34586;53.616;10.032;2023-06-24T09:13:58;3.80;;;2.77;;
10872;SDS011;34586;53.616;10.032;2023-06-24T09:16:25;2.43;;;2.30;;
10872;SDS011;34586;53.616;10.032;2023-06-24T09:18:51;3.17;;;2.67;;
10872;SDS011;34586;53.616;10.032;2023-06-24T09:21:27;5.40;;;2.80;;
10872;SDS011;34586;53.616;10.032;2023-06-24T09:23:56;3.00;;;2.50;;
10872;SDS011;34586;53.616;10.032;2023-06-24T09:26:23;2.60;;;2.17;;
10872;SDS011;34586;53.616;10.032;2023-06-24T09:28:50;3.07;;;2.40;;
10872;SDS011;34586;53.616;10.032;2023-06-24T09:31:16;2.50;;;2.30;;
10872;SDS011;34586;53.616;10.032;2023-06-24T09:33:43;3.33;;;2.47;;
10872;SDS011;34586;53.616;10.032;2023-06-24T09:36:12;3.40;;;2.33;;
10872;SDS011;34586;53.616;10.032;2023-06-24T09:38:40;5.00;;;3.00;;
10872;SDS011;34586;53.616;10.032;2023-06-24T09:41:07;3.03;;;2.43;;
10872;SDS011;34586;53.616;10.032;2023-06-24T09:43:34;3.17;;;2.50;;
10872;SDS011;34586;53.616;10.032;2023-06-24T09:46:07;3.23;;;2.67;;
10872;SDS011;34586;53.616;10.032;2023-06-24T09:48:33;3.63;;;2.50;;
10872;SDS011;34586;53.616;10.032;2023-06-24T09:51:00;5.53;;;2.70;;
10872;SDS011;34586;53.616;10.032;2023-06-24T09:53:30;2.67;;;2.20;;
10872;SDS011;34586;53.616;10.032;2023-06-24T09:55:57;3.23;;;2.43;;
10872;SDS011;34586;53.616;10.032;2023-06-24T09:58:28;4.70;;;3.27;;
10872;SDS011;34586;53.616;10.032;2023-06-24T10:00:57;4.27;;;2.93;;
10872;SDS011;34586;53.616;10.032;2023-06-24T10:03:28;4.43;;;3.00;;
10872;SDS011;34586;53.616;10.032;2023-06-24T10:05:56;5.03;;;2.93;;
10872;SDS011;34586;53.616;10.032;2023-06-24T10:08:22;3.80;;;2.37;;
10872;SDS011;34586;53.616;10.032;2023-06-24T10:10:48;4.73;;;2.90;;
10872;SDS011;34586;53.616;10.032;2023-06-24T10:16:01;3.80;;;2.40;;
10872;SDS011;34586;53.616;10.032;2023-06-24T10:20:56;3.87;;;2.73;;
10872;SDS011;34586;53.616;10.032;2023-06-24T10:23:22;2.77;;;2.57;;
10872;SDS011;34586;53.616;10.032;2023-06-24T10:25:48;3.33;;;2.97;;
10872;SDS011;34586;53.616;10.032;2023-06-24T10:28:13;2.73;;;2.50;;
10872;SDS011;34586;53.616;10.032;2023-06-24T10:30:39;3.07;;;2.80;;
10872;SDS011;34586;53.616;10.032;2023-06-24T10:33:18;2.97;;;2.67;;
10872;SDS011;34586;53.616;10.032;2023-06-24T10:35:44;3.47;;;3.17;;
10872;SDS011;34586;53.616;10.032;2023-06-24T10:38:10;4.47;;;3.00;;
10872;SDS011;34586;53.616;10.032;2023-06-24T10:40:39;3.50;;;3.20;;
10872;SDS011;34586;53.616;10.032;2023-06-24T10:45:50;4.60;;;2.90;;
10872;SDS011;34586;53.616;10.032;2023-06-24T10:48:20;3.50;;;3.10;;
10872;SDS011;34586;53.616;10.032;2023-06-24T10:50:47;3.43;;;2.87;;
10872;SDS011;34586;53.616;10.032;2023-06-24T10:53:14;4.97;;;2.60;;
10872;SDS011;34586;53.616;10.032;2023-06-24T10:55:40;3.20;;;2.90;;
10872;SDS011;34586;53.616;10.032;2023-06-24T10:58:08;3.20;;;2.90;;
10872;SDS011;34586;53.616;10.032;2023-06-24T11:00:37;2.90;;;2.70;;
10872;SDS011;34586;53.616;10.032;2023-06-24T11:03:12;4.10;;;2.90;;
10872;SDS011;34586;53.616;10.032;2023-06-24T11:05:40;3.50;;;3.20;;
10872;SDS011;34586;53.616;10.032;2023-06-24T11:08:07;3.50;;;3.20;;
10872;SDS011;34586;53.616;10.032;2023-06-24T11:10:33;3.80;;;2.80;;
10872;SDS011;34586;53.616;10.032;2023-06-24T11:13:04;2.67;;;2.40;;
10872;SDS011;34586;53.616;10.032;2023-06-24T11:15:31;4.60;;;2.40;;
10872;SDS011;34586;53.616;10.032;2023-06-24T11:17:57;5.83;;;2.80;;
10872;SDS011;34586;53.616;10.032;2023-06-24T11:20:23;2.80;;;2.23;;
10872;SDS011;34586;53.616;10.032;2023-06-24T11:22:49;2.10;;;2.00;;
10872;SDS011;34586;53.616;10.032;2023-06-24T11:25:15;2.73;;;2.50;;
10872;SDS011;34586;53.616;10.032;2023-06-24T11:27:42;3.50;;;2.53;;
10872;SDS011;34586;53.616;10.032;2023-06-24T11:30:08;2.80;;;2.37;;
10872;SDS011;34586;53.616;10.032;2023-06-24T11:35:07;2.83;;;2.63;;
10872;SDS011;34586;53.616;10.032;2023-06-24T11:37:33;4.53;;;2.80;;
10872;SDS011;34586;53.616;10.032;2023-06-24T11:40:00;2.50;;;2.40;;
10872;SDS011;34586;53.616;10.032;2023-06-24T11:42:31;2.70;;;2.50;;
10872;SDS011;34586;53.616;10.032;2023-06-24T11:45:01;2.50;;;2.30;;
10872;SDS011;34586;53.616;10.032;2023-06-24T11:47:30;6.90;;;2.70;;
10872;SDS011;34586;53.616;10.032;2023-06-24T11:50:00;4.17;;;2.40;;
10872;SDS011;34586;53.616;10.032;2023-06-24T11:52:49;4.47;;;3.23;;
10872;SDS011;34586;53.616;10.032;2023-06-24T11:55:18;3.23;;;2.93;;
10872;SDS011;34586;53.616;10.032;2023-06-24T11:57:51;3.00;;;2.57;;
10872;SDS011;34586;53.616;10.032;2023-06-24T12:00:21;2.93;;;2.47;;
10872;SDS011;34586;53.616;10.032;2023-06-24T12:02:52;4.23;;;3.00;;
10872;SDS011;34586;53.616;10.032;2023-06-24T12:05:28;3.00;;;2.70;;
10872;SDS011;34586;53.616;10.032;2023-06-24T12:07:57;3.63;;;2.80;;
10872;SDS011;34586;53.616;10.032;2023-06-24T12:10:27;2.73;;;2.53;;
10872;SDS011;34586;53.616;10.032;2023-06-24T12:12:54;3.13;;;2.83;;
10872;SDS011;34586;53.616;10.032;2023-06-24T12:15:20;6.90;;;3.10;;
10872;SDS011;34586;53.616;10.032;2023-06-24T12:17:46;3.40;;;2.53;;
10872;SDS011;34586;53.616;10.032;2023-06-24T12:20:12;4.13;;;2.53;;
10872;SDS011;34586;53.616;10.032;2023-06-24T12:22:39;3.23;;;2.97;;
10872;SDS011;34586;53.616;10.032;2023-06-24T12:25:06;3.67;;;2.67;;
10872;SDS011;34586;53.616;10.032;2023-06-24T12:27:32;2.90;;;2.70;;
10872;SDS011;34586;53.616;10.032;2023-06-24T12:29:58;3.37;;;2.97;;
10872;SDS011;34586;53.616;10.032;2023-06-24T12:32:24;4.00;;;2.03;;
10872;SDS011;34586;53.616;10.032;2023-06-24T12:34:50;2.87;;;2.47;;
10872;SDS011;34586;53.616;10.032;2023-06-24T12:37:15;2.43;;;2.23;;
10872;SDS011;34586;53.616;10.032;2023-06-24T12:39:41;2.90;;;2.40;;
10872;SDS011;34586;53.616;10.032;2023-06-24T12:42:06;2.60;;;2.40;;
10872;SDS011;34586;53.616;10.032;2023-06-24T12:44:32;3.43;;;2.80;;
10872;SDS011;34586;53.616;10.032;2023-06-24T12:46:58;2.83;;;2.60;;
10872;SDS011;34586;53.616;10.032;2023-06-24T12:49:23;4.40;;;2.33;;
10872;SDS011;34586;53.616;10.032;2023-06-24T12:51:49;3.60;;;3.23;;
10872;SDS011;34586;53.616;10.032;2023-06-24T12:54:14;3.57;;;2.63;;
10872;SDS011;34586;53.616;10.032;2023-06-24T12:56:40;2.63;;;2.43;;
10872;SDS011;34586;53.616;10.032;2023-06-24T12:59:05;2.67;;;2.43;;
10872;SDS011;34586;53.616;10.032;2023-06-24T13:01:31;2.60;;;2.47;;
10872;SDS011;34586;53.616;10.032;2023-06-24T13:03:57;2.77;;;2.57;;
10872;SDS011;34586;53.616;10.032;2023-06-24T13:06:22;2.80;;;2.60;;
10872;SDS011;34586;53.616;10.032;2023-06-24T13:08:48;3.13;;;2.90;;
10872;SDS011;34586;53.616;10.032;2023-06-24T13:11:13;4.10;;;2.70;;
10872;SDS011;34586;53.616;10.032;2023-06-24T13:13:39;3.17;;;2.90;;
10872;SDS011;34586;53.616;10.032;2023-06-24T13:18:52;2.67;;;2.47;;
10872;SDS011;34586;53.616;10.032;2023-06-24T13:21:18;3.33;;;2.47;;
10872;SDS011;34586;53.616;10.032;2023-06-24T13:23:43;3.30;;;3.07;;
10872;SDS011;34586;53.616;10.032;2023-06-24T13:26:11;3.70;;;3.40;;
10872;SDS011;34586;53.616;10.032;2023-06-24T13:28:37;3.53;;;3.23;;
10872;SDS011;34586;53.616;10.032;2023-06-24T13:31:02;4.83;;;3.80;;
10872;SDS011;34586;53.616;10.032;2023-06-24T13:33:28;2.60;;;2.40;;
10872;SDS011;34586;53.616;10.032;2023-06-24T13:35:54;4.00;;;2.30;;
10872;SDS011;34586;53.616;10.032;2023-06-24T13:38:21;3.80;;;2.47;;
10872;SDS011;34586;53.616;10.032;2023-06-24T13:40:47;2.95;;;2.75;;
10872;SDS011;34586;53.616;10.032;2023-06-24T13:43:12;4.40;;;3.72;;
10872;SDS011;34586;53.616;10.032;2023-06-24T13:45:38;3.35;;;3.00;;
10872;SDS011;34586;53.616;10.032;2023-06-24T13:48:03;4.40;;;2.43;;
10872;SDS011;34586;53.616;10.032;2023-06-24T13:50:29;6.53;;;2.73;;
10872;SDS011;34586;53.616;10.032;2023-06-24T13:52:55;2.47;;;2.27;;
10872;SDS011;34586;53.616;10.032;2023-06-24T13:55:21;2.67;;;2.47;;
10872;SDS011;34586;53.616;10.032;2023-06-24T13:57:46;3.20;;;3.00;;
10872;SDS011;34586;53.616;10.032;2023-06-24T14:00:12;3.67;;;3.38;;
10872;SDS011;34586;53.616;10.032;2023-06-24T14:02:39;4.70;;;3.90;;
10872;SDS011;34586;53.616;10.032;2023-06-24T14:05:05;2.78;;;2.58;;
10872;SDS011;34586;53.616;10.032;2023-06-24T14:07:31;3.28;;;2.97;;
10872;SDS011;34586;53.616;10.032;2023-06-24T14:09:57;2.30;;;2.10;;
10872;SDS011;34586;53.616;10.032;2023-06-24T14:12:22;2.33;;;2.10;;
10872;SDS011;34586;53.616;10.032;2023-06-24T14:14:48;4.07;;;2.53;;
10872;SDS011;34586;53.616;10.032;2023-06-24T14:17:14;3.05;;;2.88;;
10872;SDS011;34586;53.616;10.032;2023-06-24T14:19:39;2.60;;;2.40;;
10872;SDS011;34586;53.616;10.032;2023-06-24T14:22:06;1.98;;;1.85;;
10872;SDS011;34586;53.616;10.032;2023-06-24T14:24:32;3.15;;;1.92;;
10872;SDS011;34586;53.616;10.032;2023-06-24T14:26:57;3.40;;;3.20;;
10872;SDS011;34586;53.616;10.032;2023-06-24T14:29:23;6.37;;;2.90;;
10872;SDS011;34586;53.616;10.032;2023-06-24T14:31:50;3.33;;;3.10;;
10872;SDS011;34586;53.616;10.032;2023-06-24T14:34:17;2.20;;;2.10;;
10872;SDS011;34586;53.616;10.032;2023-06-24T14:36:43;4.30;;;2.20;;
10872;SDS011;34586;53.616;10.032;2023-06-24T14:39:09;2.03;;;1.93;;
10872;SDS011;34586;53.616;10.032;2023-06-24T14:41:34;2.40;;;2.30;;
10872;SDS011;34586;53.616;10.032;2023-06-24T14:44:00;2.27;;;2.13;;
10872;SDS011;34586;53.616;10.032;2023-06-24T14:46:25;3.03;;;2.83;;
10872;SDS011;34586;53.616;10.032;2023-06-24T14:48:51;3.00;;;2.70;;
10872;SDS011;34586;53.616;10.032;2023-06-24T14:51:16;2.30;;;2.10;;
10872;SDS011;34586;53.616;10.032;2023-06-24T14:53:42;2.50;;;2.10;;
10872;SDS011;34586;53.616;10.032;2023-06-24T14:56:08;3.13;;;2.27;;
10872;SDS011;34586;53.616;10.032;2023-06-24T14:58:33;2.40;;;2.23;;